Portada
METAR-TAF:

METAR-TAF

Aeroports :

Tamchy, Kirguizistan

latitud: 42-35-17N, longitud: 076-42-47E, altitud: 1653 m

Observació

L'informe es va fer fa 24 minuts, a les 10:00 UTC
Vent 6 kt del Sud-Est
Temperatura 9°C
Humitat 43%
Pressió 1015 hPa
Visibilitat 10 km o més
Escasses núvols a una alçada de 3000 ft

METAR: UCFL 301000Z 14003MPS 9999 FEW030 09/M03 Q1015 R07/CLRD//

Hora: 16:24 (10:24 UTC)

Pronòstic

L'informe es va fer fa 2 hores i 31 minuts, a les 07:53 UTC
Pronòstic vàlid del 30 a les 09 UTC al 30 a les 18 UTC
Vent 6 kt del Sud/Sud-Est amb ràfegues de 16 kt
Visibilitat 10 km o més
Escasses núvols a una alçada de 3000 ft, Cumulonimbus.

TAF: UCFL 300753Z 3009/3018 15003G08MPS 9999 FEW030CB

Observacions i pronòstics meteorològics de més de 4000 aeroports (METAR i TAF).

Les estacions disponibles són els punts grocs i vermells al mapa.

Posi el ratolí al punt desitjat per veure el nom de l'estació.

Feu clic per veure les observacions i els pronòstics meteorològics.

Per canviar el mapa: feu clic els botons verds amb una creu de color negre per apropar; al botó verd amb un guió per allunyar la imatge; o en les fletxes verdes per a mapes adjacents.


METAR-TAF: